createdAt,value
2023-03-01T00:00:36.985Z,10.50
2023-03-01T00:01:36.942Z,10.20
2023-03-01T00:02:36.961Z,11.50
2023-03-01T00:03:36.987Z,11.30
2023-03-01T00:04:36.957Z,10.80
2023-03-01T00:05:36.910Z,10.90
2023-03-01T00:06:36.933Z,11.30
2023-03-01T00:07:36.916Z,11.20
2023-03-01T00:08:36.889Z,11.20
2023-03-01T00:09:36.904Z,11.10
2023-03-01T00:10:36.953Z,11.60
2023-03-01T00:11:36.957Z,12.20
2023-03-01T00:12:36.884Z,11.20
2023-03-01T00:13:36.876Z,11.70
2023-03-01T00:14:36.870Z,11.80
2023-03-01T00:15:36.879Z,12.20
2023-03-01T00:16:36.975Z,12.20
2023-03-01T00:17:36.846Z,12.80
2023-03-01T00:18:36.849Z,11.90
2023-03-01T00:19:36.857Z,11.40
2023-03-01T00:20:36.833Z,12.70
2023-03-01T00:21:36.871Z,11.80
2023-03-01T00:22:36.813Z,12.20
2023-03-01T00:23:36.845Z,12.20
2023-03-01T00:24:36.849Z,13.00
2023-03-01T00:25:36.909Z,11.40
2023-03-01T00:26:36.826Z,11.00
2023-03-01T00:27:36.812Z,11.30
2023-03-01T00:28:36.830Z,12.20
2023-03-01T00:29:36.799Z,10.80
2023-03-01T00:30:36.841Z,18.20
2023-03-01T00:31:36.859Z,18.40
2023-03-01T00:32:36.766Z,14.40
2023-03-01T00:33:36.817Z,17.60
2023-03-01T00:34:36.778Z,16.40
2023-03-01T00:35:36.803Z,12.60
2023-03-01T00:36:36.747Z,11.80
2023-03-01T00:37:36.749Z,11.20
2023-03-01T00:38:36.765Z,11.90
2023-03-01T00:39:36.751Z,11.50
2023-03-01T00:40:36.759Z,11.60
2023-03-01T00:41:36.739Z,12.50
2023-03-01T00:42:36.751Z,11.40
2023-03-01T00:43:36.750Z,11.80
2023-03-01T00:44:36.701Z,11.40
2023-03-01T00:45:36.703Z,10.80
2023-03-01T00:46:36.789Z,11.00
2023-03-01T00:47:36.686Z,11.50
2023-03-01T00:48:36.786Z,11.10
2023-03-01T00:49:36.698Z,11.40
2023-03-01T00:50:36.678Z,11.30
2023-03-01T00:51:36.654Z,10.90
2023-03-01T00:52:36.660Z,10.40
2023-03-01T00:53:36.686Z,12.50
2023-03-01T00:54:36.687Z,11.70
2023-03-01T00:55:36.653Z,11.30
2023-03-01T00:56:36.652Z,10.90
2023-03-01T00:57:36.691Z,10.80
2023-03-01T00:58:36.629Z,11.50
2023-03-01T00:59:36.619Z,11.20
2023-03-01T01:00:36.654Z,11.40
2023-03-01T01:01:36.639Z,10.90
2023-03-01T01:02:36.673Z,11.60
2023-03-01T01:03:36.606Z,11.10
2023-03-01T01:04:36.658Z,11.10
2023-03-01T01:05:36.577Z,11.20
2023-03-01T01:06:36.606Z,11.40
2023-03-01T01:07:36.605Z,11.20
2023-03-01T01:08:36.604Z,11.10
2023-03-01T01:09:36.622Z,10.90
2023-03-01T01:10:36.808Z,11.40
2023-03-01T01:11:36.581Z,11.70
2023-03-01T01:12:36.556Z,11.10
2023-03-01T01:13:36.557Z,11.00
2023-03-01T01:14:36.771Z,11.60
2023-03-01T01:15:36.733Z,11.70
2023-03-01T01:16:36.535Z,11.70
2023-03-01T01:17:36.530Z,11.90
2023-03-01T01:18:36.558Z,11.00
2023-03-01T01:19:36.564Z,11.90
2023-03-01T01:20:36.601Z,11.00
2023-03-01T01:21:36.529Z,12.10
2023-03-01T01:22:36.502Z,11.30
2023-03-01T01:23:36.520Z,11.60
2023-03-01T01:24:36.536Z,11.10
2023-03-01T01:25:36.674Z,11.30
2023-03-01T01:26:36.505Z,12.40
2023-03-01T01:27:36.562Z,11.90
2023-03-01T01:28:36.502Z,11.30
2023-03-01T01:29:36.619Z,11.50
2023-03-01T01:30:36.553Z,11.90
2023-03-01T01:31:36.590Z,11.20
2023-03-01T01:32:36.461Z,11.50
2023-03-01T01:33:36.510Z,12.10
2023-03-01T01:34:36.513Z,11.80
2023-03-01T01:35:36.486Z,12.00
2023-03-01T01:36:36.502Z,12.00
2023-03-01T01:37:36.450Z,11.20
2023-03-01T01:38:36.404Z,11.00
2023-03-01T01:39:36.447Z,11.50
2023-03-01T01:40:36.402Z,11.60
2023-03-01T01:41:36.519Z,12.10
2023-03-01T01:42:36.396Z,11.90
2023-03-01T01:43:36.402Z,10.90
2023-03-01T01:44:36.387Z,11.90
2023-03-01T01:45:36.413Z,11.80
2023-03-01T01:46:36.407Z,12.20
2023-03-01T01:47:37.440Z,12.00
2023-03-01T01:48:36.387Z,12.00
2023-03-01T01:49:36.491Z,11.60
2023-03-01T01:50:36.357Z,12.10
2023-03-01T01:51:36.392Z,11.40
2023-03-01T01:52:36.332Z,12.60
2023-03-01T01:53:36.329Z,12.20
2023-03-01T01:54:36.312Z,11.90
2023-03-01T01:55:36.378Z,12.20
2023-03-01T01:56:36.388Z,12.30
2023-03-01T01:57:36.368Z,12.30
2023-03-01T01:58:36.308Z,12.00
2023-03-01T01:59:36.274Z,11.90
2023-03-01T02:00:36.262Z,12.20
2023-03-01T02:01:36.364Z,11.80
2023-03-01T02:02:36.370Z,11.40
2023-03-01T02:03:36.331Z,11.70
2023-03-01T02:04:36.274Z,11.90
2023-03-01T02:05:36.256Z,12.30
2023-03-01T02:06:36.279Z,12.80
2023-03-01T02:07:36.281Z,11.40
2023-03-01T02:08:36.247Z,11.10
2023-03-01T02:09:36.246Z,11.20
2023-03-01T02:10:36.227Z,11.20
2023-03-01T02:11:36.261Z,12.10
2023-03-01T02:12:36.270Z,11.70
2023-03-01T02:13:36.274Z,11.70
2023-03-01T02:14:36.335Z,11.60
2023-03-01T02:15:36.289Z,11.70
2023-03-01T02:16:36.273Z,11.80
2023-03-01T02:17:36.226Z,12.00
2023-03-01T02:18:36.244Z,12.60
2023-03-01T02:19:36.183Z,12.30
2023-03-01T02:20:36.181Z,12.60
2023-03-01T02:21:36.232Z,12.10
2023-03-01T02:22:36.232Z,12.20
2023-03-01T02:23:36.199Z,12.90
2023-03-01T02:24:36.184Z,13.00
2023-03-01T02:25:36.176Z,12.50
2023-03-01T02:26:36.149Z,11.50
2023-03-01T02:27:36.153Z,12.40
2023-03-01T02:28:36.218Z,12.20
2023-03-01T02:29:36.133Z,12.50
2023-03-01T02:30:36.120Z,12.00
2023-03-01T02:31:36.170Z,13.00
2023-03-01T02:32:36.118Z,13.00
2023-03-01T02:33:36.133Z,12.70
2023-03-01T02:34:36.096Z,13.20
2023-03-01T02:35:36.190Z,13.20
2023-03-01T02:36:36.100Z,13.80
2023-03-01T02:37:36.126Z,12.90
2023-03-01T02:38:36.098Z,13.80
2023-03-01T02:39:36.128Z,13.50
2023-03-01T02:40:36.088Z,12.60
2023-03-01T02:41:36.079Z,12.10
2023-03-01T02:42:36.068Z,12.70
2023-03-01T02:43:36.074Z,12.50
2023-03-01T02:44:36.131Z,12.10
2023-03-01T02:45:36.063Z,12.50
2023-03-01T02:46:36.063Z,12.50
2023-03-01T02:47:36.032Z,13.20
2023-03-01T02:48:36.047Z,12.80
2023-03-01T02:49:36.085Z,12.90
2023-03-01T02:50:36.026Z,12.60
2023-03-01T02:51:36.045Z,12.50
2023-03-01T02:52:36.011Z,13.70
2023-03-01T02:53:36.117Z,12.30
2023-03-01T02:54:36.055Z,13.00
2023-03-01T02:55:35.991Z,12.90
2023-03-01T02:56:35.986Z,13.80
2023-03-01T02:57:36.000Z,13.20
2023-03-01T02:58:36.009Z,12.70
2023-03-01T02:59:36.062Z,13.60
2023-03-01T03:00:35.978Z,13.00
2023-03-01T03:01:35.980Z,12.60
2023-03-01T03:02:35.991Z,13.30
2023-03-01T03:03:35.990Z,13.40
2023-03-01T03:04:35.949Z,13.80
2023-03-01T03:05:35.974Z,14.10
2023-03-01T03:06:35.948Z,14.60
2023-03-01T03:07:35.951Z,13.40
2023-03-01T03:08:36.023Z,13.00
2023-03-01T03:09:35.939Z,13.50
2023-03-01T03:10:35.953Z,13.00
2023-03-01T03:11:35.919Z,13.90
2023-03-01T03:12:35.883Z,14.60
2023-03-01T03:13:35.914Z,13.70
2023-03-01T03:14:35.950Z,13.50
2023-03-01T03:15:35.941Z,14.00
2023-03-01T03:16:35.904Z,14.40
2023-03-01T03:17:35.881Z,13.30
2023-03-01T03:18:35.864Z,13.50
2023-03-01T03:19:36.853Z,13.90
2023-03-01T03:20:35.943Z,12.90
2023-03-01T03:21:35.873Z,13.70
2023-03-01T03:22:35.875Z,13.40
2023-03-01T03:23:35.837Z,13.20
2023-03-01T03:24:35.827Z,12.60
2023-03-01T03:25:35.822Z,12.60
2023-03-01T03:26:35.843Z,12.80
2023-03-01T03:27:35.823Z,14.00
2023-03-01T03:28:35.830Z,14.10
2023-03-01T03:29:35.819Z,14.30
2023-03-01T03:30:35.805Z,13.60
2023-03-01T03:31:35.912Z,13.40
2023-03-01T03:32:35.821Z,13.60
2023-03-01T03:33:35.791Z,14.20
2023-03-01T03:34:35.753Z,13.50
2023-03-01T03:35:35.801Z,13.10
2023-03-01T03:36:35.803Z,13.60
2023-03-01T03:37:35.799Z,13.60
2023-03-01T03:38:35.756Z,13.30
2023-03-01T03:39:35.767Z,14.30
2023-03-01T03:40:35.766Z,13.30
2023-03-01T03:41:35.793Z,14.30
2023-03-01T03:42:35.717Z,14.00
2023-03-01T03:43:35.710Z,13.10
2023-03-01T03:44:35.730Z,13.40
2023-03-01T03:45:35.753Z,13.60
2023-03-01T03:46:35.985Z,13.70
2023-03-01T03:47:35.746Z,13.40
2023-03-01T03:48:35.696Z,13.90
2023-03-01T03:49:35.693Z,13.30
2023-03-01T03:50:35.688Z,13.80
2023-03-01T03:51:35.709Z,12.80
2023-03-01T03:52:35.718Z,13.20
2023-03-01T03:53:35.704Z,13.50
2023-03-01T03:54:35.665Z,13.40
2023-03-01T03:55:35.652Z,13.20
2023-03-01T03:56:35.646Z,13.60
2023-03-01T03:57:35.716Z,13.90
2023-03-01T03:58:35.694Z,13.80
2023-03-01T03:59:35.639Z,13.00
2023-03-01T04:00:35.625Z,12.90
2023-03-01T04:01:35.643Z,13.30
2023-03-01T04:02:35.631Z,13.50
2023-03-01T04:03:35.645Z,13.00
2023-03-01T04:04:35.584Z,13.20
2023-03-01T04:05:35.604Z,13.90
2023-03-01T04:06:35.603Z,13.30
2023-03-01T04:07:35.594Z,13.60
2023-03-01T04:08:35.599Z,13.60
2023-03-01T04:09:35.549Z,13.50
2023-03-01T04:10:35.568Z,13.70
2023-03-01T04:11:35.552Z,13.80
2023-03-01T04:12:35.568Z,14.00
2023-03-01T04:13:35.583Z,13.40
2023-03-01T04:14:35.596Z,14.00
2023-03-01T04:15:35.561Z,14.30
2023-03-01T04:16:35.555Z,13.10
2023-03-01T04:17:35.535Z,14.50
2023-03-01T04:18:35.607Z,13.20
2023-03-01T04:19:35.578Z,13.20
2023-03-01T04:20:35.517Z,14.50
2023-03-01T04:21:35.497Z,14.10
2023-03-01T04:22:35.520Z,13.40
2023-03-01T04:23:35.531Z,13.50
2023-03-01T04:24:35.506Z,13.60
2023-03-01T04:25:35.490Z,14.70
2023-03-01T04:26:35.490Z,13.60
2023-03-01T04:27:35.476Z,13.70
2023-03-01T04:28:35.462Z,13.70
2023-03-01T04:29:35.514Z,14.30
2023-03-01T04:30:35.498Z,13.70
2023-03-01T04:31:35.575Z,14.30
2023-03-01T04:32:35.474Z,14.10
2023-03-01T04:33:35.449Z,14.80
2023-03-01T04:34:35.481Z,13.80
2023-03-01T04:35:35.659Z,13.00
2023-03-01T04:36:35.987Z,13.90
2023-03-01T04:37:35.476Z,14.50
2023-03-01T04:38:35.424Z,14.50
2023-03-01T04:39:35.449Z,14.70
2023-03-01T04:40:35.472Z,14.90
2023-03-01T04:41:35.425Z,13.70
2023-03-01T04:42:35.402Z,14.80
2023-03-01T04:43:35.391Z,15.10
2023-03-01T04:44:35.378Z,14.30
2023-03-01T04:45:35.526Z,14.50
2023-03-01T04:46:35.381Z,14.50
2023-03-01T04:47:35.376Z,13.90
2023-03-01T04:48:35.351Z,14.80
2023-03-01T04:49:35.360Z,14.20
2023-03-01T04:50:35.382Z,13.90
2023-03-01T04:51:35.388Z,14.20
2023-03-01T04:52:35.342Z,14.30
2023-03-01T04:53:35.324Z,13.40
2023-03-01T04:54:35.341Z,14.10
2023-03-01T04:55:35.325Z,13.50
2023-03-01T04:56:35.349Z,13.60
2023-03-01T04:57:35.361Z,14.90
2023-03-01T04:58:35.313Z,14.70
2023-03-01T04:59:35.284Z,14.50
2023-03-01T05:00:35.325Z,13.70
2023-03-01T05:01:35.296Z,14.30
2023-03-01T05:02:35.372Z,14.00
2023-03-01T05:03:35.290Z,13.80
2023-03-01T05:04:35.387Z,14.40
2023-03-01T05:05:35.273Z,14.60
2023-03-01T05:06:35.305Z,14.70
2023-03-01T05:07:35.264Z,14.80
2023-03-01T05:08:35.254Z,14.50
2023-03-01T05:09:35.269Z,15.20
2023-03-01T05:10:35.248Z,14.40
2023-03-01T05:11:35.262Z,14.10
2023-03-01T05:12:35.317Z,14.80
2023-03-01T05:13:35.239Z,15.40
2023-03-01T05:14:35.253Z,15.10
2023-03-01T05:15:35.234Z,15.50
2023-03-01T05:16:36.514Z,15.40
2023-03-01T05:17:36.198Z,14.70
2023-03-01T05:18:35.243Z,14.80
2023-03-01T05:19:35.229Z,15.00
2023-03-01T05:20:35.194Z,15.80
2023-03-01T05:21:35.163Z,15.30
2023-03-01T05:22:35.202Z,15.10
2023-03-01T05:23:35.148Z,14.60
2023-03-01T05:24:35.154Z,14.50
2023-03-01T05:25:35.174Z,14.10
2023-03-01T05:26:35.145Z,14.90
2023-03-01T05:27:35.183Z,15.20
2023-03-01T05:28:35.197Z,14.40
2023-03-01T05:29:35.123Z,15.20
2023-03-01T05:30:35.108Z,14.80
2023-03-01T05:31:35.115Z,15.60
2023-03-01T05:32:35.178Z,15.10
2023-03-01T05:33:36.146Z,16.30
2023-03-01T05:34:35.089Z,16.60
2023-03-01T05:35:35.133Z,16.70
2023-03-01T05:36:35.090Z,16.10
2023-03-01T05:37:35.116Z,15.80
2023-03-01T05:38:35.087Z,17.20
2023-03-01T05:39:35.069Z,16.80
2023-03-01T05:40:35.058Z,16.50
2023-03-01T05:41:35.034Z,15.90
2023-03-01T05:42:36.060Z,16.60
2023-03-01T05:43:35.142Z,15.60
2023-03-01T05:44:35.045Z,16.50
2023-03-01T05:45:35.057Z,15.10
2023-03-01T05:46:35.068Z,15.80
2023-03-01T05:47:35.069Z,15.60
2023-03-01T05:48:34.993Z,15.20
2023-03-01T05:49:35.069Z,14.90
2023-03-01T05:50:34.989Z,14.60
2023-03-01T05:51:35.031Z,15.10
2023-03-01T05:52:35.001Z,15.00
2023-03-01T05:53:35.039Z,15.20
2023-03-01T05:54:34.973Z,15.40
2023-03-01T05:55:35.251Z,15.50
2023-03-01T05:56:34.951Z,14.70
2023-03-01T05:57:34.985Z,15.20
2023-03-01T05:58:34.972Z,14.70
2023-03-01T05:59:34.959Z,16.00
2023-03-01T06:00:34.953Z,15.40
2023-03-01T06:01:34.944Z,15.50
2023-03-01T06:02:34.929Z,15.10
2023-03-01T06:03:34.984Z,15.70
2023-03-01T06:04:34.966Z,15.70
2023-03-01T06:05:34.987Z,15.40
2023-03-01T06:06:35.057Z,14.70
2023-03-01T06:07:34.939Z,15.20
2023-03-01T06:08:35.044Z,14.70
2023-03-01T06:09:34.952Z,14.60
2023-03-01T06:10:34.898Z,15.90
2023-03-01T06:11:34.865Z,14.10
2023-03-01T06:12:34.867Z,15.10
2023-03-01T06:13:34.889Z,14.80
2023-03-01T06:14:34.927Z,15.00
2023-03-01T06:15:35.022Z,15.20
2023-03-01T06:16:34.868Z,14.90
2023-03-01T06:17:34.847Z,13.60
2023-03-01T06:18:34.909Z,14.90
2023-03-01T06:19:34.885Z,14.50
2023-03-01T06:20:34.873Z,15.20
2023-03-01T06:21:34.817Z,14.80
2023-03-01T06:22:34.806Z,15.00
2023-03-01T06:23:34.848Z,14.00
2023-03-01T06:24:34.858Z,14.30
2023-03-01T06:25:34.805Z,14.60
2023-03-01T06:26:34.874Z,14.80
2023-03-01T06:27:34.789Z,14.20
2023-03-01T06:28:34.775Z,14.60
2023-03-01T06:29:34.826Z,14.60
2023-03-01T06:30:34.807Z,15.40
2023-03-01T06:31:34.823Z,15.10
2023-03-01T06:32:35.752Z,14.20
2023-03-01T06:33:34.759Z,14.20
2023-03-01T06:34:34.740Z,14.00
2023-03-01T06:35:34.824Z,14.00
2023-03-01T06:36:34.749Z,13.20
2023-03-01T06:37:34.752Z,13.30
2023-03-01T06:38:34.730Z,13.00
2023-03-01T06:39:34.722Z,12.70
2023-03-01T06:40:34.766Z,13.20
2023-03-01T06:41:34.719Z,13.40
2023-03-01T06:42:34.691Z,13.60
2023-03-01T06:43:34.696Z,12.70
2023-03-01T06:44:34.683Z,12.80
2023-03-01T06:45:34.691Z,13.20
2023-03-01T06:46:34.809Z,13.50
2023-03-01T06:47:34.671Z,13.20
2023-03-01T06:48:34.665Z,13.20
2023-03-01T06:49:34.675Z,13.10
2023-03-01T06:50:34.699Z,13.30
2023-03-01T06:51:34.686Z,13.00
2023-03-01T06:52:34.678Z,12.90
2023-03-01T06:53:34.627Z,12.80
2023-03-01T06:54:34.610Z,12.80
2023-03-01T06:55:34.631Z,12.40
2023-03-01T06:56:34.685Z,13.20
2023-03-01T06:57:34.638Z,12.30
2023-03-01T06:58:34.641Z,12.60
2023-03-01T06:59:34.587Z,11.40
2023-03-01T07:00:34.573Z,11.00
2023-03-01T07:01:34.646Z,11.60
2023-03-01T07:02:34.612Z,11.40
2023-03-01T07:03:34.610Z,10.90
2023-03-01T07:04:34.565Z,11.20
2023-03-01T07:05:34.595Z,10.80
2023-03-01T07:06:34.590Z,11.60
2023-03-01T07:07:34.628Z,10.70
2023-03-01T07:08:34.545Z,11.60
2023-03-01T07:09:34.547Z,11.40
2023-03-01T07:10:34.555Z,12.40
2023-03-01T07:11:34.545Z,12.60
2023-03-01T07:12:34.616Z,12.10
2023-03-01T07:13:34.513Z,11.40
2023-03-01T07:14:34.476Z,12.20
2023-03-01T07:15:34.490Z,11.60
2023-03-01T07:16:35.083Z,11.50
2023-03-01T07:17:34.557Z,12.30
2023-03-01T07:18:34.475Z,11.60
2023-03-01T07:19:34.454Z,11.30
2023-03-01T07:20:34.446Z,11.20
2023-03-01T07:21:34.499Z,10.80
2023-03-01T07:22:34.448Z,11.70
2023-03-01T07:23:34.473Z,11.10
2023-03-01T07:24:34.419Z,11.40
2023-03-01T07:25:34.492Z,11.40
2023-03-01T07:26:34.445Z,11.00
2023-03-01T07:27:34.392Z,21.60
2023-03-01T07:28:34.446Z,14.10
2023-03-01T07:29:34.391Z,14.10
2023-03-01T07:30:34.408Z,12.80
2023-03-01T07:31:34.362Z,11.60
2023-03-01T07:32:34.481Z,10.40
2023-03-01T07:33:34.400Z,10.70
2023-03-01T07:34:34.430Z,10.80
2023-03-01T07:35:34.424Z,10.30
2023-03-01T07:36:34.352Z,10.40
2023-03-01T07:37:34.378Z,10.70
2023-03-01T07:38:34.388Z,10.30
2023-03-01T07:39:34.334Z,11.70
2023-03-01T07:40:34.319Z,13.90
2023-03-01T07:41:34.325Z,14.90
2023-03-01T07:42:34.325Z,11.60
2023-03-01T07:43:34.317Z,10.30
2023-03-01T07:44:34.298Z,10.60
2023-03-01T07:45:34.318Z,10.10
2023-03-01T07:46:34.290Z,9.80
2023-03-01T07:47:34.303Z,9.20
2023-03-01T07:48:34.286Z,8.90
2023-03-01T07:49:34.303Z,9.00
2023-03-01T07:50:34.243Z,8.60
2023-03-01T07:51:34.251Z,8.90
2023-03-01T07:52:34.250Z,9.30
2023-03-01T07:53:34.239Z,8.70
2023-03-01T07:54:34.283Z,9.20
2023-03-01T07:55:34.254Z,8.70
2023-03-01T07:56:34.407Z,8.40
2023-03-01T07:57:34.229Z,8.60
2023-03-01T07:58:34.241Z,8.80
2023-03-01T07:59:34.241Z,8.70
2023-03-01T08:00:34.209Z,8.30
2023-03-01T08:01:34.245Z,8.40
2023-03-01T08:02:34.197Z,8.90
2023-03-01T08:03:34.196Z,8.30
2023-03-01T08:04:34.184Z,8.10
2023-03-01T08:05:34.173Z,8.20
2023-03-01T08:06:34.215Z,8.10
2023-03-01T08:07:34.169Z,8.20
2023-03-01T08:08:34.143Z,7.90
2023-03-01T08:09:34.146Z,8.40
2023-03-01T08:10:34.139Z,9.00
2023-03-01T08:11:34.192Z,8.50
2023-03-01T08:12:34.108Z,8.00
2023-03-01T08:13:34.112Z,8.60
2023-03-01T08:14:34.096Z,8.30
2023-03-01T08:15:34.099Z,8.80
2023-03-01T08:16:34.477Z,8.60
2023-03-01T08:17:34.081Z,8.60
2023-03-01T08:18:34.141Z,8.60
2023-03-01T08:19:34.062Z,8.40
2023-03-01T08:20:34.062Z,8.30
2023-03-01T08:21:34.077Z,8.50
2023-03-01T08:22:34.049Z,8.70
2023-03-01T08:23:34.038Z,8.60
2023-03-01T08:24:34.029Z,9.10
2023-03-01T08:25:34.049Z,9.30
2023-03-01T08:26:34.059Z,8.80
2023-03-01T08:27:34.018Z,9.30
2023-03-01T08:28:34.026Z,9.20
2023-03-01T08:29:34.021Z,8.80
2023-03-01T08:30:34.059Z,8.70
2023-03-01T08:31:33.997Z,9.80
2023-03-01T08:32:34.061Z,9.30
2023-03-01T08:33:33.986Z,10.10
2023-03-01T08:34:33.959Z,8.90
2023-03-01T08:35:34.000Z,9.00
2023-03-01T08:36:34.272Z,9.00
2023-03-01T08:37:34.012Z,9.40
2023-03-01T08:38:33.942Z,9.70
2023-03-01T08:39:34.000Z,8.50
2023-03-01T08:40:33.950Z,9.50
2023-03-01T08:41:33.914Z,8.90
2023-03-01T08:42:33.956Z,8.60
2023-03-01T08:43:33.919Z,8.70
2023-03-01T08:44:33.948Z,9.00
2023-03-01T08:45:33.954Z,8.80
2023-03-01T08:46:34.262Z,9.10
2023-03-01T08:47:33.939Z,8.90
2023-03-01T08:48:33.986Z,9.20
2023-03-01T08:49:33.887Z,8.80
2023-03-01T08:50:33.890Z,9.30
2023-03-01T08:51:33.856Z,8.80
2023-03-01T08:52:33.917Z,9.00
2023-03-01T08:53:33.882Z,9.00
2023-03-01T08:54:33.916Z,9.00
2023-03-01T08:55:33.849Z,8.60
2023-03-01T08:56:33.862Z,9.40
2023-03-01T08:57:33.870Z,9.20
2023-03-01T08:58:33.869Z,8.50
2023-03-01T08:59:33.830Z,8.90
2023-03-01T09:00:33.832Z,8.90
2023-03-01T09:01:33.803Z,8.80
2023-03-01T09:02:33.890Z,8.90
2023-03-01T09:03:33.790Z,9.40
2023-03-01T09:04:33.807Z,9.00
2023-03-01T09:05:33.772Z,8.90
2023-03-01T09:06:33.776Z,8.90
2023-03-01T09:07:33.766Z,10.60
2023-03-01T09:08:33.781Z,9.80
2023-03-01T09:09:33.783Z,10.10
2023-03-01T09:10:33.746Z,9.90
2023-03-01T09:11:33.752Z,10.10
2023-03-01T09:12:33.743Z,10.10
2023-03-01T09:13:33.769Z,9.20
2023-03-01T09:14:33.762Z,9.50
2023-03-01T09:15:33.693Z,10.30
2023-03-01T09:16:34.198Z,10.30
2023-03-01T09:17:33.702Z,9.90
2023-03-01T09:18:33.706Z,9.40
2023-03-01T09:19:33.732Z,9.50
2023-03-01T09:20:33.740Z,9.40
2023-03-01T09:21:40.593Z,9.10
2023-03-01T09:22:35.673Z,9.60
2023-03-01T09:23:33.658Z,9.40
2023-03-01T09:24:33.654Z,9.50
2023-03-01T09:25:33.690Z,9.90
2023-03-01T09:26:33.975Z,9.70
2023-03-01T09:27:33.659Z,9.70
2023-03-01T09:28:33.644Z,9.70
2023-03-01T09:29:33.614Z,10.10
2023-03-01T09:30:33.691Z,9.20
2023-03-01T09:31:33.593Z,10.10
2023-03-01T09:32:33.637Z,9.30
2023-03-01T09:33:33.619Z,9.50
2023-03-01T09:34:33.619Z,10.00
2023-03-01T09:35:33.640Z,9.40
2023-03-01T09:36:33.929Z,9.40
2023-03-01T09:37:33.583Z,9.20
2023-03-01T09:38:33.569Z,9.80
2023-03-01T09:39:33.566Z,9.20
2023-03-01T09:40:33.574Z,9.20
2023-03-01T09:41:34.601Z,9.50
2023-03-01T09:42:33.619Z,9.40
2023-03-01T09:43:33.561Z,9.70
2023-03-01T09:44:33.557Z,9.00
2023-03-01T09:45:33.522Z,9.00
2023-03-01T09:46:33.999Z,9.60
2023-03-01T09:47:54.580Z,9.60
2023-03-01T09:48:33.538Z,10.30
2023-03-01T09:49:33.509Z,9.60
2023-03-01T09:50:33.529Z,8.90
2023-03-01T09:51:33.551Z,9.90
2023-03-01T09:52:33.578Z,9.70
2023-03-01T09:53:33.509Z,9.50
2023-03-01T09:54:33.555Z,9.60
2023-03-01T09:55:33.524Z,9.10
2023-03-01T09:56:33.547Z,9.70
2023-03-01T09:57:33.520Z,10.10
2023-03-01T09:58:33.496Z,10.00
2023-03-01T09:59:33.466Z,9.70
2023-03-01T10:00:33.479Z,9.50
2023-03-01T10:01:33.524Z,9.90
2023-03-01T10:02:33.489Z,9.80
2023-03-01T10:03:33.597Z,11.10
2023-03-01T10:04:34.544Z,10.40
2023-03-01T10:05:33.424Z,10.10
2023-03-01T10:06:35.404Z,10.00
2023-03-01T10:07:34.515Z,9.90
2023-03-01T10:08:33.480Z,9.90
2023-03-01T10:09:33.449Z,10.50
2023-03-01T10:10:33.394Z,11.60
2023-03-01T10:11:33.399Z,10.20
2023-03-01T10:12:33.471Z,10.60
2023-03-01T10:13:33.388Z,9.70
2023-03-01T10:14:33.392Z,10.70
2023-03-01T10:15:33.439Z,10.30
2023-03-01T10:16:33.348Z,10.10
2023-03-01T10:17:33.374Z,10.00
2023-03-01T10:18:33.368Z,10.30
2023-03-01T10:19:33.346Z,10.50
2023-03-01T10:20:33.329Z,10.20
2023-03-01T10:21:33.674Z,10.20
2023-03-01T10:22:33.315Z,9.90
2023-03-01T10:23:33.310Z,10.80
2023-03-01T10:24:33.304Z,10.00
2023-03-01T10:25:33.314Z,10.20
2023-03-01T10:26:33.538Z,9.40
2023-03-01T10:27:33.302Z,9.80
2023-03-01T10:28:33.265Z,10.70
2023-03-01T10:29:33.306Z,10.00
2023-03-01T10:30:33.251Z,10.40
2023-03-01T10:31:33.835Z,9.90
2023-03-01T10:32:33.279Z,9.70
2023-03-01T10:33:33.249Z,10.50
2023-03-01T10:34:34.096Z,10.70
2023-03-01T10:35:33.317Z,10.50
2023-03-01T10:36:33.374Z,9.40
2023-03-01T10:37:33.222Z,11.60
2023-03-01T10:38:33.224Z,11.50
2023-03-01T10:39:35.023Z,9.80
2023-03-01T10:40:33.242Z,10.10
2023-03-01T10:41:33.588Z,10.40
2023-03-01T10:42:33.313Z,9.40
2023-03-01T10:43:33.193Z,9.90
2023-03-01T10:44:33.274Z,9.90
2023-03-01T10:45:33.184Z,9.00
2023-03-01T10:46:33.202Z,9.70
2023-03-01T10:47:33.219Z,10.00
2023-03-01T10:48:33.198Z,8.60
2023-03-01T10:49:33.183Z,9.60
2023-03-01T10:50:33.137Z,9.90
2023-03-01T10:51:33.288Z,9.80
2023-03-01T10:52:33.230Z,9.40
2023-03-01T10:53:33.212Z,9.40
2023-03-01T10:54:33.126Z,10.00
2023-03-01T10:55:33.163Z,9.40
2023-03-01T10:56:33.125Z,9.70
2023-03-01T10:57:33.116Z,10.10
2023-03-01T10:58:33.087Z,9.10
2023-03-01T10:59:33.103Z,9.90
2023-03-01T11:00:33.128Z,10.20
2023-03-01T11:01:33.878Z,9.40
2023-03-01T11:02:33.092Z,9.70
2023-03-01T11:03:33.075Z,9.20
2023-03-01T11:04:33.172Z,9.50
2023-03-01T11:05:33.130Z,9.00
2023-03-01T11:06:33.095Z,9.70
2023-03-01T11:07:33.046Z,9.60
2023-03-01T11:08:34.896Z,10.00
2023-03-01T11:09:34.737Z,10.30
2023-03-01T11:10:33.011Z,9.60
2023-03-01T11:11:33.354Z,9.50
2023-03-01T11:12:33.001Z,9.90
2023-03-01T11:13:33.105Z,10.50
2023-03-01T11:14:32.995Z,12.30
2023-03-01T11:15:33.013Z,10.30
2023-03-01T11:16:33.020Z,9.90
2023-03-01T11:17:39.042Z,9.60
2023-03-01T11:18:47.035Z,10.70
2023-03-01T11:19:34.962Z,10.00
2023-03-01T11:20:33.089Z,9.90
2023-03-01T11:21:33.294Z,9.40
2023-03-01T11:22:33.040Z,9.40
2023-03-01T11:23:32.944Z,9.10
2023-03-01T11:24:33.020Z,9.20
2023-03-01T11:25:32.953Z,9.20
2023-03-01T11:26:33.129Z,9.80
2023-03-01T11:27:33.931Z,11.00
2023-03-01T11:28:32.924Z,10.10
2023-03-01T11:29:43.255Z,9.50
2023-03-01T11:30:34.980Z,10.00
2023-03-01T11:31:33.286Z,9.10
2023-03-01T11:32:32.996Z,9.80
2023-03-01T11:33:32.896Z,9.10
2023-03-01T11:34:32.914Z,9.40
2023-03-01T11:35:32.906Z,8.10
2023-03-01T11:36:32.880Z,9.40
2023-03-01T11:37:32.876Z,9.40
2023-03-01T11:38:32.912Z,9.20
2023-03-01T11:39:32.907Z,9.30
2023-03-01T11:40:32.901Z,9.20
2023-03-01T11:41:33.217Z,9.20
2023-03-01T11:42:32.867Z,9.40
2023-03-01T11:43:32.875Z,9.00
2023-03-01T11:44:32.867Z,9.70
2023-03-01T11:45:32.880Z,9.60
2023-03-01T11:46:32.994Z,9.60
2023-03-01T11:47:32.984Z,9.30
2023-03-01T11:48:48.454Z,9.40
2023-03-01T11:49:34.787Z,9.40
2023-03-01T11:50:32.794Z,9.80
2023-03-01T11:51:33.060Z,8.80
2023-03-01T11:52:32.799Z,9.40
2023-03-01T11:53:32.864Z,9.70
2023-03-01T11:54:32.771Z,8.80
2023-03-01T11:55:32.917Z,9.60
2023-03-01T11:56:32.823Z,9.70
2023-03-01T11:57:42.840Z,9.50
2023-03-01T11:58:34.784Z,9.00
2023-03-01T11:59:32.769Z,9.80
2023-03-01T12:00:32.778Z,9.10
2023-03-01T12:01:33.136Z,9.10
2023-03-01T12:02:32.829Z,9.40
2023-03-01T12:03:32.740Z,9.40
2023-03-01T12:04:32.758Z,8.50
2023-03-01T12:05:32.737Z,9.60
2023-03-01T12:06:32.801Z,8.90
2023-03-01T12:07:32.854Z,8.70
2023-03-01T12:08:32.770Z,9.00
2023-03-01T12:09:32.725Z,10.80
2023-03-01T12:10:32.690Z,15.80
2023-03-01T12:11:32.704Z,10.40
2023-03-01T12:12:32.712Z,8.90
2023-03-01T12:13:32.763Z,9.30
2023-03-01T12:14:32.698Z,8.80
2023-03-01T12:15:32.669Z,8.50
2023-03-01T12:16:38.917Z,9.20
2023-03-01T12:17:34.750Z,8.40
2023-03-01T12:18:32.668Z,8.80
2023-03-01T12:19:32.653Z,9.00
2023-03-01T12:20:32.656Z,9.80
2023-03-01T12:21:32.987Z,9.60
2023-03-01T12:22:32.684Z,8.80
2023-03-01T12:23:32.636Z,8.70
2023-03-01T12:24:32.635Z,9.00
2023-03-01T12:25:32.718Z,8.80
2023-03-01T12:26:32.698Z,8.90
2023-03-01T12:27:32.631Z,9.40
2023-03-01T12:28:32.612Z,9.40
2023-03-01T12:29:32.665Z,9.40
2023-03-01T12:30:32.704Z,9.30
2023-03-01T12:31:33.027Z,9.00
2023-03-01T12:32:35.312Z,9.00
2023-03-01T12:33:32.598Z,8.80
2023-03-01T12:34:33.775Z,9.80
2023-03-01T12:35:32.714Z,10.10
2023-03-01T12:36:33.037Z,9.40
2023-03-01T12:37:32.586Z,9.40
2023-03-01T12:38:33.610Z,9.60
2023-03-01T12:39:32.577Z,8.80
2023-03-01T12:40:32.633Z,9.80
2023-03-01T12:41:32.916Z,9.20
2023-03-01T12:42:32.555Z,9.70
2023-03-01T12:43:32.575Z,9.20
2023-03-01T12:44:32.552Z,9.10
2023-03-01T12:45:32.641Z,8.90
2023-03-01T12:46:32.974Z,8.80
2023-03-01T12:47:32.557Z,9.30
2023-03-01T12:48:32.527Z,9.40
2023-03-01T12:49:33.103Z,9.10
2023-03-01T12:50:32.521Z,9.30
2023-03-01T12:51:32.533Z,9.60
2023-03-01T12:52:33.090Z,9.80
2023-03-01T12:53:32.688Z,9.40
2023-03-01T12:54:32.911Z,9.00
2023-03-01T12:55:33.549Z,9.30
2023-03-01T12:56:32.803Z,8.80
2023-03-01T12:57:32.574Z,9.20
2023-03-01T12:58:47.230Z,8.10
2023-03-01T12:59:34.488Z,9.00
2023-03-01T13:00:32.493Z,9.50